sensor_id;sensor_type;location;lat;lon;timestamp;pressure;altitude;pressure_sealevel;temperature;humidity
33280;BME280;20403;43.114;12.434;2023-04-15T00:02:15;98377.25;;;5.93;100.00
33280;BME280;20403;43.114;12.434;2023-04-15T00:04:42;98372.13;;;5.86;100.00
33280;BME280;20403;43.114;12.434;2023-04-15T00:07:07;98371.53;;;5.84;100.00
33280;BME280;20403;43.114;12.434;2023-04-15T00:09:33;98369.78;;;5.85;100.00
33280;BME280;20403;43.114;12.434;2023-04-15T00:11:58;98361.81;;;5.80;100.00
33280;BME280;20403;43.114;12.434;2023-04-15T00:14:23;98365.84;;;5.76;100.00
33280;BME280;20403;43.114;12.434;2023-04-15T00:16:50;98359.22;;;5.80;100.00
33280;BME280;20403;43.114;12.434;2023-04-15T00:19:20;98356.00;;;5.59;100.00
33280;BME280;20403;43.114;12.434;2023-04-15T00:21:45;98357.75;;;5.59;100.00
33280;BME280;20403;43.114;12.434;2023-04-15T00:24:11;98353.22;;;5.54;100.00
33280;BME280;20403;43.114;12.434;2023-04-15T00:26:38;98350.81;;;5.59;100.00
33280;BME280;20403;43.114;12.434;2023-04-15T00:29:05;98344.47;;;5.55;100.00
33280;BME280;20403;43.114;12.434;2023-04-15T00:31:30;98349.41;;;5.57;100.00
33280;BME280;20403;43.114;12.434;2023-04-15T00:33:56;98342.66;;;5.56;100.00
33280;BME280;20403;43.114;12.434;2023-04-15T00:36:22;98341.16;;;5.41;100.00
33280;BME280;20403;43.114;12.434;2023-04-15T00:38:48;98333.13;;;5.56;100.00
33280;BME280;20403;43.114;12.434;2023-04-15T00:41:13;98329.53;;;5.57;100.00
33280;BME280;20403;43.114;12.434;2023-04-15T00:43:39;98322.16;;;5.61;100.00
33280;BME280;20403;43.114;12.434;2023-04-15T00:46:05;98321.91;;;5.69;100.00
33280;BME280;20403;43.114;12.434;2023-04-15T00:48:31;98316.34;;;5.65;100.00
33280;BME280;20403;43.114;12.434;2023-04-15T00:50:57;98313.41;;;5.62;100.00
33280;BME280;20403;43.114;12.434;2023-04-15T00:53:23;98314.56;;;5.66;100.00
33280;BME280;20403;43.114;12.434;2023-04-15T00:55:49;98322.72;;;5.63;100.00
33280;BME280;20403;43.114;12.434;2023-04-15T00:58:15;98314.38;;;5.61;100.00
33280;BME280;20403;43.114;12.434;2023-04-15T01:00:41;98316.00;;;5.62;100.00
33280;BME280;20403;43.114;12.434;2023-04-15T01:03:07;98315.88;;;5.75;100.00
33280;BME280;20403;43.114;12.434;2023-04-15T01:05:33;98318.53;;;5.68;100.00
33280;BME280;20403;43.114;12.434;2023-04-15T01:07:59;98327.75;;;5.89;100.00
33280;BME280;20403;43.114;12.434;2023-04-15T01:10:25;98326.50;;;5.99;100.00
33280;BME280;20403;43.114;12.434;2023-04-15T01:12:51;98325.66;;;6.05;100.00
33280;BME280;20403;43.114;12.434;2023-04-15T01:15:16;98324.19;;;6.16;100.00
33280;BME280;20403;43.114;12.434;2023-04-15T01:17:42;98322.38;;;6.16;100.00
33280;BME280;20403;43.114;12.434;2023-04-15T01:20:07;98329.09;;;6.24;100.00
33280;BME280;20403;43.114;12.434;2023-04-15T01:22:37;98315.28;;;6.30;100.00
33280;BME280;20403;43.114;12.434;2023-04-15T01:25:18;98326.88;;;6.27;100.00
33280;BME280;20403;43.114;12.434;2023-04-15T01:27:44;98329.66;;;6.26;100.00
33280;BME280;20403;43.114;12.434;2023-04-15T01:30:10;98337.53;;;6.38;100.00
33280;BME280;20403;43.114;12.434;2023-04-15T01:32:36;98322.66;;;6.51;100.00
33280;BME280;20403;43.114;12.434;2023-04-15T01:35:01;98319.88;;;6.71;100.00
33280;BME280;20403;43.114;12.434;2023-04-15T01:37:27;98319.28;;;6.88;100.00
33280;BME280;20403;43.114;12.434;2023-04-15T01:39:53;98315.00;;;7.00;100.00
33280;BME280;20403;43.114;12.434;2023-04-15T01:42:20;98311.22;;;7.14;100.00
33280;BME280;20403;43.114;12.434;2023-04-15T01:44:45;98313.50;;;7.23;100.00
33280;BME280;20403;43.114;12.434;2023-04-15T01:47:11;98311.84;;;7.28;100.00
33280;BME280;20403;43.114;12.434;2023-04-15T01:49:36;98315.59;;;7.32;100.00
33280;BME280;20403;43.114;12.434;2023-04-15T01:52:02;98314.31;;;7.23;100.00
33280;BME280;20403;43.114;12.434;2023-04-15T01:54:27;98304.50;;;7.07;100.00
33280;BME280;20403;43.114;12.434;2023-04-15T01:56:52;98307.69;;;7.09;100.00
33280;BME280;20403;43.114;12.434;2023-04-15T01:59:18;98309.50;;;7.08;100.00
33280;BME280;20403;43.114;12.434;2023-04-15T02:01:43;98305.75;;;7.04;100.00
33280;BME280;20403;43.114;12.434;2023-04-15T02:04:09;98300.16;;;7.07;100.00
33280;BME280;20403;43.114;12.434;2023-04-15T02:06:44;98306.28;;;6.94;100.00
33280;BME280;20403;43.114;12.434;2023-04-15T02:09:10;98309.81;;;7.00;100.00
33280;BME280;20403;43.114;12.434;2023-04-15T02:11:35;98311.75;;;7.05;100.00
33280;BME280;20403;43.114;12.434;2023-04-15T02:14:04;98307.41;;;6.99;100.00
33280;BME280;20403;43.114;12.434;2023-04-15T02:16:31;98311.59;;;7.00;100.00
33280;BME280;20403;43.114;12.434;2023-04-15T02:18:56;98308.06;;;7.12;100.00
33280;BME280;20403;43.114;12.434;2023-04-15T02:21:22;98304.34;;;7.20;100.00
33280;BME280;20403;43.114;12.434;2023-04-15T02:23:47;98312.50;;;7.24;100.00
33280;BME280;20403;43.114;12.434;2023-04-15T02:26:13;98307.72;;;7.21;100.00
33280;BME280;20403;43.114;12.434;2023-04-15T02:28:38;98304.81;;;7.17;100.00
33280;BME280;20403;43.114;12.434;2023-04-15T02:31:05;98299.25;;;7.13;100.00
33280;BME280;20403;43.114;12.434;2023-04-15T02:33:30;98299.34;;;7.07;100.00
33280;BME280;20403;43.114;12.434;2023-04-15T02:35:56;98296.19;;;7.05;100.00
33280;BME280;20403;43.114;12.434;2023-04-15T02:38:22;98296.69;;;6.95;100.00
33280;BME280;20403;43.114;12.434;2023-04-15T02:40:47;98290.66;;;6.83;100.00
33280;BME280;20403;43.114;12.434;2023-04-15T02:43:14;98292.88;;;6.79;100.00
33280;BME280;20403;43.114;12.434;2023-04-15T02:45:41;98301.09;;;6.76;100.00
33280;BME280;20403;43.114;12.434;2023-04-15T02:48:08;98282.50;;;6.79;100.00
33280;BME280;20403;43.114;12.434;2023-04-15T02:50:33;98282.59;;;6.91;100.00
33280;BME280;20403;43.114;12.434;2023-04-15T02:52:59;98280.34;;;6.94;100.00
33280;BME280;20403;43.114;12.434;2023-04-15T02:55:25;98286.31;;;6.95;100.00
33280;BME280;20403;43.114;12.434;2023-04-15T02:57:51;98305.81;;;6.98;100.00
33280;BME280;20403;43.114;12.434;2023-04-15T03:00:16;98294.00;;;7.02;100.00
33280;BME280;20403;43.114;12.434;2023-04-15T03:02:43;98287.84;;;7.03;100.00
33280;BME280;20403;43.114;12.434;2023-04-15T03:05:13;98281.72;;;6.97;100.00
33280;BME280;20403;43.114;12.434;2023-04-15T03:07:38;98289.53;;;7.09;100.00
33280;BME280;20403;43.114;12.434;2023-04-15T03:10:06;98285.72;;;7.11;100.00
33280;BME280;20403;43.114;12.434;2023-04-15T03:12:31;98280.69;;;7.17;100.00
33280;BME280;20403;43.114;12.434;2023-04-15T03:14:57;98282.97;;;7.25;100.00
33280;BME280;20403;43.114;12.434;2023-04-15T03:17:22;98281.38;;;7.24;100.00
33280;BME280;20403;43.114;12.434;2023-04-15T03:19:47;98278.34;;;7.27;100.00
33280;BME280;20403;43.114;12.434;2023-04-15T03:22:13;98274.22;;;7.38;100.00
33280;BME280;20403;43.114;12.434;2023-04-15T03:24:38;98278.75;;;7.42;100.00
33280;BME280;20403;43.114;12.434;2023-04-15T03:27:04;98265.53;;;7.44;100.00
33280;BME280;20403;43.114;12.434;2023-04-15T03:29:32;98264.31;;;7.46;100.00
33280;BME280;20403;43.114;12.434;2023-04-15T03:31:57;98255.66;;;7.52;100.00
33280;BME280;20403;43.114;12.434;2023-04-15T03:34:23;98266.72;;;7.60;100.00
33280;BME280;20403;43.114;12.434;2023-04-15T03:36:48;98263.91;;;7.61;100.00
33280;BME280;20403;43.114;12.434;2023-04-15T03:39:13;98272.34;;;7.56;100.00
33280;BME280;20403;43.114;12.434;2023-04-15T03:41:39;98271.41;;;7.51;100.00
33280;BME280;20403;43.114;12.434;2023-04-15T03:44:05;98259.16;;;7.58;100.00
33280;BME280;20403;43.114;12.434;2023-04-15T03:46:30;98259.50;;;7.62;100.00
33280;BME280;20403;43.114;12.434;2023-04-15T03:48:56;98258.03;;;7.54;100.00
33280;BME280;20403;43.114;12.434;2023-04-15T03:51:21;98246.16;;;7.46;100.00
33280;BME280;20403;43.114;12.434;2023-04-15T03:53:46;98243.78;;;7.45;100.00
33280;BME280;20403;43.114;12.434;2023-04-15T03:56:12;98237.25;;;7.42;100.00
33280;BME280;20403;43.114;12.434;2023-04-15T03:58:37;98243.59;;;7.58;100.00
33280;BME280;20403;43.114;12.434;2023-04-15T04:01:03;98246.41;;;7.56;100.00
33280;BME280;20403;43.114;12.434;2023-04-15T04:03:28;98249.47;;;7.53;100.00
33280;BME280;20403;43.114;12.434;2023-04-15T04:05:54;98246.97;;;7.47;100.00
33280;BME280;20403;43.114;12.434;2023-04-15T04:08:19;98240.06;;;7.52;100.00
33280;BME280;20403;43.114;12.434;2023-04-15T04:10:45;98238.84;;;7.55;100.00
33280;BME280;20403;43.114;12.434;2023-04-15T04:13:11;98243.78;;;7.45;100.00
33280;BME280;20403;43.114;12.434;2023-04-15T04:15:36;98253.84;;;7.53;100.00
33280;BME280;20403;43.114;12.434;2023-04-15T04:18:02;98248.31;;;7.49;100.00
33280;BME280;20403;43.114;12.434;2023-04-15T04:20:27;98257.13;;;7.60;100.00
33280;BME280;20403;43.114;12.434;2023-04-15T04:22:53;98255.56;;;7.71;100.00
33280;BME280;20403;43.114;12.434;2023-04-15T04:25:18;98256.69;;;7.75;100.00
33280;BME280;20403;43.114;12.434;2023-04-15T04:27:43;98254.34;;;7.85;100.00
33280;BME280;20403;43.114;12.434;2023-04-15T04:30:10;98250.63;;;7.81;100.00
33280;BME280;20403;43.114;12.434;2023-04-15T04:32:35;98240.78;;;7.83;100.00
33280;BME280;20403;43.114;12.434;2023-04-15T04:35:01;98242.03;;;7.81;100.00
33280;BME280;20403;43.114;12.434;2023-04-15T04:37:27;98237.09;;;7.79;100.00
33280;BME280;20403;43.114;12.434;2023-04-15T04:39:52;98229.06;;;7.81;100.00
33280;BME280;20403;43.114;12.434;2023-04-15T04:42:17;98240.13;;;7.88;100.00
33280;BME280;20403;43.114;12.434;2023-04-15T04:44:43;98239.22;;;7.82;100.00
33280;BME280;20403;43.114;12.434;2023-04-15T04:47:09;98237.09;;;7.91;100.00
33280;BME280;20403;43.114;12.434;2023-04-15T04:49:34;98239.69;;;7.91;100.00
33280;BME280;20403;43.114;12.434;2023-04-15T04:51:59;98241.72;;;7.89;100.00
33280;BME280;20403;43.114;12.434;2023-04-15T04:54:25;98241.03;;;7.93;100.00
33280;BME280;20403;43.114;12.434;2023-04-15T04:56:51;98244.31;;;8.12;100.00
33280;BME280;20403;43.114;12.434;2023-04-15T04:59:17;98250.97;;;8.08;100.00
33280;BME280;20403;43.114;12.434;2023-04-15T05:01:42;98254.69;;;8.12;100.00
33280;BME280;20403;43.114;12.434;2023-04-15T05:04:08;98252.09;;;8.24;100.00
33280;BME280;20403;43.114;12.434;2023-04-15T05:06:33;98243.63;;;8.17;100.00
33280;BME280;20403;43.114;12.434;2023-04-15T05:09:00;98249.28;;;8.14;100.00
33280;BME280;20403;43.114;12.434;2023-04-15T05:11:27;98243.75;;;7.98;100.00
33280;BME280;20403;43.114;12.434;2023-04-15T05:13:52;98244.31;;;8.12;100.00
33280;BME280;20403;43.114;12.434;2023-04-15T05:16:18;98245.09;;;8.13;100.00
33280;BME280;20403;43.114;12.434;2023-04-15T05:18:44;98237.41;;;8.06;100.00
33280;BME280;20403;43.114;12.434;2023-04-15T05:21:10;98243.53;;;8.12;100.00
33280;BME280;20403;43.114;12.434;2023-04-15T05:23:35;98242.16;;;8.09;100.00
33280;BME280;20403;43.114;12.434;2023-04-15T05:26:02;98244.78;;;7.97;100.00
33280;BME280;20403;43.114;12.434;2023-04-15T05:28:27;98243.97;;;8.09;100.00
33280;BME280;20403;43.114;12.434;2023-04-15T05:30:53;98233.03;;;8.07;100.00
33280;BME280;20403;43.114;12.434;2023-04-15T05:33:18;98238.31;;;8.12;100.00
33280;BME280;20403;43.114;12.434;2023-04-15T05:35:44;98239.88;;;8.25;100.00
33280;BME280;20403;43.114;12.434;2023-04-15T05:38:09;98234.47;;;8.26;100.00
33280;BME280;20403;43.114;12.434;2023-04-15T05:40:35;98232.91;;;8.25;100.00
33280;BME280;20403;43.114;12.434;2023-04-15T05:43:01;98233.00;;;8.30;100.00
33280;BME280;20403;43.114;12.434;2023-04-15T05:45:26;98230.19;;;8.44;100.00
33280;BME280;20403;43.114;12.434;2023-04-15T05:47:51;98235.13;;;8.57;100.00
33280;BME280;20403;43.114;12.434;2023-04-15T05:50:18;98233.00;;;8.54;100.00
33280;BME280;20403;43.114;12.434;2023-04-15T05:52:44;98236.47;;;8.71;100.00
33280;BME280;20403;43.114;12.434;2023-04-15T05:55:10;98239.38;;;8.75;100.00
33280;BME280;20403;43.114;12.434;2023-04-15T05:57:36;98232.66;;;8.91;100.00
33280;BME280;20403;43.114;12.434;2023-04-15T06:00:02;98235.91;;;8.98;100.00
33280;BME280;20403;43.114;12.434;2023-04-15T06:02:29;98233.25;;;9.10;100.00
33280;BME280;20403;43.114;12.434;2023-04-15T06:04:56;98228.88;;;9.27;100.00
33280;BME280;20403;43.114;12.434;2023-04-15T06:07:22;98221.88;;;9.44;100.00
33280;BME280;20403;43.114;12.434;2023-04-15T06:09:48;98224.19;;;9.41;100.00
33280;BME280;20403;43.114;12.434;2023-04-15T06:12:13;98215.59;;;9.57;100.00
33280;BME280;20403;43.114;12.434;2023-04-15T06:14:39;98216.31;;;9.53;100.00
33280;BME280;20403;43.114;12.434;2023-04-15T06:17:05;98216.44;;;9.63;100.00
33280;BME280;20403;43.114;12.434;2023-04-15T06:19:31;98222.22;;;9.65;100.00
33280;BME280;20403;43.114;12.434;2023-04-15T06:21:57;98219.13;;;9.68;100.00
33280;BME280;20403;43.114;12.434;2023-04-15T06:24:23;98227.19;;;9.66;100.00
33280;BME280;20403;43.114;12.434;2023-04-15T06:26:48;98229.28;;;9.86;100.00
33280;BME280;20403;43.114;12.434;2023-04-15T06:29:13;98226.69;;;9.86;100.00
33280;BME280;20403;43.114;12.434;2023-04-15T06:31:40;98225.97;;;9.91;100.00
33280;BME280;20403;43.114;12.434;2023-04-15T06:34:05;98222.13;;;9.94;100.00
33280;BME280;20403;43.114;12.434;2023-04-15T06:36:31;98229.69;;;9.95;100.00
33280;BME280;20403;43.114;12.434;2023-04-15T06:38:57;98228.91;;;9.95;100.00
33280;BME280;20403;43.114;12.434;2023-04-15T06:41:22;98221.47;;;10.03;100.00
33280;BME280;20403;43.114;12.434;2023-04-15T06:43:48;98218.44;;;10.12;100.00
33280;BME280;20403;43.114;12.434;2023-04-15T06:46:13;98221.88;;;10.12;100.00
33280;BME280;20403;43.114;12.434;2023-04-15T06:48:38;98211.97;;;10.14;100.00
33280;BME280;20403;43.114;12.434;2023-04-15T06:51:04;98215.28;;;10.09;100.00
33280;BME280;20403;43.114;12.434;2023-04-15T06:53:30;98217.13;;;10.09;100.00
33280;BME280;20403;43.114;12.434;2023-04-15T06:55:55;98206.47;;;10.10;100.00
33280;BME280;20403;43.114;12.434;2023-04-15T06:58:21;98204.09;;;10.09;100.00
33280;BME280;20403;43.114;12.434;2023-04-15T07:00:46;98197.22;;;10.20;100.00
33280;BME280;20403;43.114;12.434;2023-04-15T07:03:12;98207.91;;;10.23;100.00
33280;BME280;20403;43.114;12.434;2023-04-15T07:05:39;98201.19;;;10.27;100.00
33280;BME280;20403;43.114;12.434;2023-04-15T07:08:05;98200.56;;;10.37;100.00
33280;BME280;20403;43.114;12.434;2023-04-15T07:10:31;98204.75;;;10.38;100.00
33280;BME280;20403;43.114;12.434;2023-04-15T07:12:57;98200.03;;;10.57;100.00
33280;BME280;20403;43.114;12.434;2023-04-15T07:15:22;98197.41;;;10.57;100.00
33280;BME280;20403;43.114;12.434;2023-04-15T07:17:48;98201.66;;;10.63;100.00
33280;BME280;20403;43.114;12.434;2023-04-15T07:20:13;98202.09;;;10.77;100.00
33280;BME280;20403;43.114;12.434;2023-04-15T07:22:39;98201.91;;;10.84;100.00
33280;BME280;20403;43.114;12.434;2023-04-15T07:25:05;98200.16;;;10.94;100.00
33280;BME280;20403;43.114;12.434;2023-04-15T07:27:31;98208.75;;;10.95;100.00
33280;BME280;20403;43.114;12.434;2023-04-15T07:29:56;98207.09;;;11.11;100.00
33280;BME280;20403;43.114;12.434;2023-04-15T07:32:22;98203.47;;;11.12;100.00
33280;BME280;20403;43.114;12.434;2023-04-15T07:34:47;98209.13;;;11.31;100.00
33280;BME280;20403;43.114;12.434;2023-04-15T07:37:13;98207.22;;;11.53;100.00
33280;BME280;20403;43.114;12.434;2023-04-15T07:39:39;98210.13;;;11.62;100.00
33280;BME280;20403;43.114;12.434;2023-04-15T07:42:04;98208.06;;;11.64;100.00
33280;BME280;20403;43.114;12.434;2023-04-15T07:44:30;98205.66;;;11.57;100.00
33280;BME280;20403;43.114;12.434;2023-04-15T07:46:56;98205.16;;;11.55;100.00
33280;BME280;20403;43.114;12.434;2023-04-15T07:49:21;98200.97;;;11.60;100.00
33280;BME280;20403;43.114;12.434;2023-04-15T07:51:47;98205.22;;;11.66;100.00
33280;BME280;20403;43.114;12.434;2023-04-15T07:54:14;98202.16;;;11.74;100.00
33280;BME280;20403;43.114;12.434;2023-04-15T07:56:39;98201.97;;;11.86;100.00
33280;BME280;20403;43.114;12.434;2023-04-15T07:59:05;98195.69;;;11.87;100.00
33280;BME280;20403;43.114;12.434;2023-04-15T08:01:31;98203.53;;;11.87;100.00
33280;BME280;20403;43.114;12.434;2023-04-15T08:04:00;98203.50;;;11.82;100.00
33280;BME280;20403;43.114;12.434;2023-04-15T08:06:25;98209.75;;;11.81;100.00
33280;BME280;20403;43.114;12.434;2023-04-15T08:08:51;98207.06;;;11.70;100.00
33280;BME280;20403;43.114;12.434;2023-04-15T08:11:18;98204.16;;;11.67;100.00
33280;BME280;20403;43.114;12.434;2023-04-15T08:13:43;98202.63;;;11.71;100.00
33280;BME280;20403;43.114;12.434;2023-04-15T08:16:20;98205.78;;;11.73;100.00
33280;BME280;20403;43.114;12.434;2023-04-15T08:18:47;98208.88;;;11.65;100.00
33280;BME280;20403;43.114;12.434;2023-04-15T08:21:13;98207.00;;;11.60;100.00
33280;BME280;20403;43.114;12.434;2023-04-15T08:23:39;98209.91;;;11.69;100.00
33280;BME280;20403;43.114;12.434;2023-04-15T08:26:05;98205.75;;;11.68;100.00
33280;BME280;20403;43.114;12.434;2023-04-15T08:28:30;98215.16;;;11.69;100.00
33280;BME280;20403;43.114;12.434;2023-04-15T08:30:56;98215.44;;;11.72;100.00
33280;BME280;20403;43.114;12.434;2023-04-15T08:33:21;98210.22;;;11.72;100.00
33280;BME280;20403;43.114;12.434;2023-04-15T08:35:48;98209.34;;;11.62;100.00
33280;BME280;20403;43.114;12.434;2023-04-15T08:38:13;98208.22;;;11.52;100.00
33280;BME280;20403;43.114;12.434;2023-04-15T08:40:43;98206.44;;;11.53;100.00
33280;BME280;20403;43.114;12.434;2023-04-15T08:43:12;98216.09;;;11.57;100.00
33280;BME280;20403;43.114;12.434;2023-04-15T08:45:40;98213.50;;;11.57;100.00
33280;BME280;20403;43.114;12.434;2023-04-15T08:48:06;98219.75;;;11.56;100.00
33280;BME280;20403;43.114;12.434;2023-04-15T08:50:33;98207.78;;;11.61;100.00
33280;BME280;20403;43.114;12.434;2023-04-15T08:52:59;98216.72;;;11.65;100.00
33280;BME280;20403;43.114;12.434;2023-04-15T08:55:31;98217.72;;;11.64;100.00
33280;BME280;20403;43.114;12.434;2023-04-15T08:58:01;98209.91;;;11.69;100.00
33280;BME280;20403;43.114;12.434;2023-04-15T09:00:28;98217.31;;;11.77;100.00
33280;BME280;20403;43.114;12.434;2023-04-15T09:02:54;98210.56;;;11.86;100.00
33280;BME280;20403;43.114;12.434;2023-04-15T09:05:21;98211.75;;;12.06;100.00
33280;BME280;20403;43.114;12.434;2023-04-15T09:07:47;98209.78;;;12.23;100.00
33280;BME280;20403;43.114;12.434;2023-04-15T09:10:12;98209.00;;;12.23;100.00
33280;BME280;20403;43.114;12.434;2023-04-15T09:12:38;98209.47;;;12.14;100.00
33280;BME280;20403;43.114;12.434;2023-04-15T09:15:04;98205.56;;;12.17;100.00
33280;BME280;20403;43.114;12.434;2023-04-15T09:17:32;98199.91;;;12.40;100.00
33280;BME280;20403;43.114;12.434;2023-04-15T09:22:33;98198.97;;;12.77;100.00
33280;BME280;20403;43.114;12.434;2023-04-15T09:24:59;98203.56;;;13.49;100.00
33280;BME280;20403;43.114;12.434;2023-04-15T09:27:24;98194.63;;;13.80;100.00
33280;BME280;20403;43.114;12.434;2023-04-15T09:29:50;98193.34;;;13.73;100.00
33280;BME280;20403;43.114;12.434;2023-04-15T09:32:17;98182.53;;;14.00;100.00
33280;BME280;20403;43.114;12.434;2023-04-15T09:34:43;98184.06;;;14.76;100.00
33280;BME280;20403;43.114;12.434;2023-04-15T09:37:09;98178.13;;;14.65;100.00
33280;BME280;20403;43.114;12.434;2023-04-15T09:39:48;98181.91;;;14.34;100.00
33280;BME280;20403;43.114;12.434;2023-04-15T09:42:14;98185.91;;;14.11;100.00
33280;BME280;20403;43.114;12.434;2023-04-15T09:44:42;98177.84;;;13.86;100.00
33280;BME280;20403;43.114;12.434;2023-04-15T09:47:07;98175.50;;;13.70;100.00
33280;BME280;20403;43.114;12.434;2023-04-15T09:49:32;98172.13;;;13.54;100.00
33280;BME280;20403;43.114;12.434;2023-04-15T09:52:01;98176.56;;;13.53;100.00
33280;BME280;20403;43.114;12.434;2023-04-15T09:54:37;98166.38;;;13.31;100.00
33280;BME280;20403;43.114;12.434;2023-04-15T09:57:07;98163.50;;;13.28;100.00
33280;BME280;20403;43.114;12.434;2023-04-15T09:59:32;98164.81;;;13.40;100.00
33280;BME280;20403;43.114;12.434;2023-04-15T10:01:58;98162.16;;;13.56;100.00
33280;BME280;20403;43.114;12.434;2023-04-15T10:04:26;98160.31;;;13.82;100.00
33280;BME280;20403;43.114;12.434;2023-04-15T10:06:52;98147.25;;;14.37;100.00
33280;BME280;20403;43.114;12.434;2023-04-15T10:09:18;98147.81;;;15.52;100.00
33280;BME280;20403;43.114;12.434;2023-04-15T10:11:44;98136.41;;;15.91;100.00
33280;BME280;20403;43.114;12.434;2023-04-15T10:14:13;98129.28;;;15.67;100.00
33280;BME280;20403;43.114;12.434;2023-04-15T10:16:40;98129.91;;;15.30;100.00
33280;BME280;20403;43.114;12.434;2023-04-15T10:19:08;98132.88;;;15.18;100.00
33280;BME280;20403;43.114;12.434;2023-04-15T10:21:34;98130.53;;;15.17;100.00
33280;BME280;20403;43.114;12.434;2023-04-15T10:24:02;98118.06;;;15.32;100.00
33280;BME280;20403;43.114;12.434;2023-04-15T10:26:27;98116.78;;;15.83;100.00
33280;BME280;20403;43.114;12.434;2023-04-15T10:28:54;98121.47;;;15.86;100.00
33280;BME280;20403;43.114;12.434;2023-04-15T10:31:20;98113.16;;;15.79;100.00
33280;BME280;20403;43.114;12.434;2023-04-15T10:33:46;98115.72;;;15.84;100.00
33280;BME280;20403;43.114;12.434;2023-04-15T10:36:13;98111.81;;;15.82;100.00
33280;BME280;20403;43.114;12.434;2023-04-15T10:46:42;98115.28;;;14.84;100.00
33280;BME280;20403;43.114;12.434;2023-04-15T10:49:13;98110.94;;;14.64;100.00
33280;BME280;20403;43.114;12.434;2023-04-15T10:51:44;98103.66;;;14.51;100.00
33280;BME280;20403;43.114;12.434;2023-04-15T10:54:14;98101.34;;;14.39;100.00
33280;BME280;20403;43.114;12.434;2023-04-15T10:56:50;98102.84;;;14.50;100.00
33280;BME280;20403;43.114;12.434;2023-04-15T10:59:15;98099.97;;;14.52;100.00
33280;BME280;20403;43.114;12.434;2023-04-15T11:02:02;98089.75;;;14.50;100.00
33280;BME280;20403;43.114;12.434;2023-04-15T11:12:46;98072.44;;;14.00;100.00
33280;BME280;20403;43.114;12.434;2023-04-15T11:18:20;98074.75;;;14.12;100.00
33280;BME280;20403;43.114;12.434;2023-04-15T11:20:51;98065.88;;;14.02;100.00
33280;BME280;20403;43.114;12.434;2023-04-15T11:23:26;98059.50;;;14.24;100.00
33280;BME280;20403;43.114;12.434;2023-04-15T11:25:53;98055.69;;;14.45;100.00
33280;BME280;20403;43.114;12.434;2023-04-15T11:28:19;98058.25;;;14.61;100.00
33280;BME280;20403;43.114;12.434;2023-04-15T11:30:44;98047.09;;;14.79;100.00
33280;BME280;20403;43.114;12.434;2023-04-15T11:33:10;98049.72;;;14.79;100.00
33280;BME280;20403;43.114;12.434;2023-04-15T11:35:40;98044.97;;;15.10;100.00
33280;BME280;20403;43.114;12.434;2023-04-15T11:38:10;98045.66;;;15.21;100.00
33280;BME280;20403;43.114;12.434;2023-04-15T11:40:37;98046.50;;;15.17;100.00
33280;BME280;20403;43.114;12.434;2023-04-15T11:45:47;98045.53;;;15.37;100.00
33280;BME280;20403;43.114;12.434;2023-04-15T11:48:13;98041.09;;;15.56;100.00
33280;BME280;20403;43.114;12.434;2023-04-15T11:50:39;98033.31;;;15.70;100.00
33280;BME280;20403;43.114;12.434;2023-04-15T11:53:08;98034.88;;;15.76;100.00
33280;BME280;20403;43.114;12.434;2023-04-15T11:55:51;98042.28;;;15.45;100.00
33280;BME280;20403;43.114;12.434;2023-04-15T11:58:21;98048.97;;;15.32;100.00
33280;BME280;20403;43.114;12.434;2023-04-15T12:00:49;98035.28;;;15.59;100.00
33280;BME280;20403;43.114;12.434;2023-04-15T12:03:26;98036.66;;;15.81;100.00
33280;BME280;20403;43.114;12.434;2023-04-15T12:11:27;98028.91;;;15.65;100.00
33280;BME280;20403;43.114;12.434;2023-04-15T12:14:09;98032.00;;;15.48;100.00
33280;BME280;20403;43.114;12.434;2023-04-15T12:16:44;98024.16;;;15.43;100.00
33280;BME280;20403;43.114;12.434;2023-04-15T12:19:11;98022.78;;;15.51;100.00
33280;BME280;20403;43.114;12.434;2023-04-15T12:21:46;98014.69;;;15.71;100.00
33280;BME280;20403;43.114;12.434;2023-04-15T12:24:12;98014.47;;;16.06;100.00
33280;BME280;20403;43.114;12.434;2023-04-15T12:26:43;98024.16;;;16.48;100.00
33280;BME280;20403;43.114;12.434;2023-04-15T12:29:11;98024.19;;;16.29;100.00
33280;BME280;20403;43.114;12.434;2023-04-15T12:32:04;98026.66;;;16.21;100.00
33280;BME280;20403;43.114;12.434;2023-04-15T12:34:32;98012.06;;;16.47;100.00
33280;BME280;20403;43.114;12.434;2023-04-15T12:37:00;98011.88;;;17.23;100.00
33280;BME280;20403;43.114;12.434;2023-04-15T12:39:28;98005.22;;;17.12;100.00
33280;BME280;20403;43.114;12.434;2023-04-15T12:41:55;97997.91;;;17.78;100.00
33280;BME280;20403;43.114;12.434;2023-04-15T12:44:23;97989.72;;;18.16;100.00
33280;BME280;20403;43.114;12.434;2023-04-15T12:46:50;97982.25;;;18.54;100.00
33280;BME280;20403;43.114;12.434;2023-04-15T12:49:15;97984.50;;;18.92;86.79
33280;BME280;20403;43.114;12.434;2023-04-15T12:51:43;97983.25;;;18.67;81.04
33280;BME280;20403;43.114;12.434;2023-04-15T12:54:09;97978.75;;;18.67;95.41
33280;BME280;20403;43.114;12.434;2023-04-15T12:56:34;97980.47;;;18.04;90.60
33280;BME280;20403;43.114;12.434;2023-04-15T12:58:59;97984.03;;;18.45;92.35
33280;BME280;20403;43.114;12.434;2023-04-15T13:01:25;97976.59;;;18.47;90.77
33280;BME280;20403;43.114;12.434;2023-04-15T13:03:50;97967.81;;;18.83;87.32
33280;BME280;20403;43.114;12.434;2023-04-15T13:06:16;97962.69;;;19.09;83.60
33280;BME280;20403;43.114;12.434;2023-04-15T13:08:42;97960.75;;;19.49;79.29
33280;BME280;20403;43.114;12.434;2023-04-15T13:11:07;97969.59;;;18.42;75.34
33280;BME280;20403;43.114;12.434;2023-04-15T13:13:32;97970.75;;;18.14;82.92